Time;durP1;ratioP1;P1;durP2;ratioP2;P2;SDS_P1;SDS_P2;PMS_P1;PMS_P2;Temp;Humidity;BMP_temperature;BMP_pressure;BME280_temperature;BME280_humidity;BME280_pressure;Samples;Min_cycle;Max_cycle;Signal;HPM_P1;HPM_P2
2022/03/22 00:01:39;;;;;;;18.77;11.52;;;-2.10;99.90;;;;;;5057625;28;20048;-90
2022/03/22 00:04:06;;;;;;;21.92;12.70;;;-2.20;99.90;;;;;;5058369;28;20506;-90
2022/03/22 00:06:33;;;;;;;18.92;12.25;;;-2.20;99.90;;;;;;5057952;28;20364;-90
2022/03/22 00:08:59;;;;;;;18.23;12.05;;;-2.10;99.90;;;;;;5058026;28;20055;-90
2022/03/22 00:11:27;;;;;;;19.73;12.55;;;-2.00;99.90;;;;;;5057863;28;20403;-90
2022/03/22 00:13:54;;;;;;;19.08;11.32;;;-2.00;99.90;;;;;;5057899;28;20158;-90
2022/03/22 00:16:21;;;;;;;19.55;12.13;;;-2.00;99.90;;;;;;5057947;28;20384;-90
2022/03/22 00:19:07;;;;;;;19.88;11.85;;;-1.90;99.90;;;;;;5060320;28;20047;-90
2022/03/22 00:21:35;;;;;;;16.95;10.82;;;-2.00;99.90;;;;;;5057826;28;20067;-91
2022/03/22 00:24:03;;;;;;;17.70;11.57;;;-2.00;99.90;;;;;;5057678;28;20052;-90
2022/03/22 00:26:30;;;;;;;18.38;11.30;;;-2.00;99.90;;;;;;5057603;28;20411;-91
2022/03/22 00:28:57;;;;;;;20.48;12.65;;;-2.10;99.90;;;;;;5056803;28;20047;-91
2022/03/22 00:31:29;;;;;;;14.85;10.30;;;-2.10;99.90;;;;;;5058170;28;20056;-91
2022/03/22 00:33:56;;;;;;;20.88;11.10;;;-2.30;99.90;;;;;;5057725;28;20072;-91
2022/03/22 00:36:23;;;;;;;18.85;11.63;;;-2.50;99.90;;;;;;5057297;28;20052;-91
2022/03/22 00:38:50;;;;;;;20.38;11.32;;;-2.60;99.90;;;;;;5058216;28;20048;-91
2022/03/22 00:41:17;;;;;;;21.27;12.10;;;-2.80;99.90;;;;;;5059016;28;20055;-91
2022/03/22 00:43:44;;;;;;;18.35;11.80;;;-2.80;99.90;;;;;;5057481;28;20059;-91
2022/03/22 00:46:12;;;;;;;24.60;11.85;;;-2.80;99.90;;;;;;5057261;28;20055;-92
2022/03/22 00:48:39;;;;;;;20.13;11.88;;;-2.80;99.90;;;;;;5057485;28;20056;-91
2022/03/22 00:51:06;;;;;;;18.67;12.65;;;-2.90;99.90;;;;;;5057175;28;20044;-90
2022/03/22 00:53:33;;;;;;;22.08;13.45;;;-2.90;99.90;;;;;;5056899;28;20049;-92
2022/03/22 00:56:01;;;;;;;20.70;12.63;;;-2.80;99.90;;;;;;5057301;28;20087;-92
2022/03/22 00:58:28;;;;;;;19.90;11.98;;;-2.70;99.90;;;;;;5057235;28;20049;-92
2022/03/22 01:00:55;;;;;;;19.75;12.43;;;-2.60;99.90;;;;;;5056916;28;20076;-92
2022/03/22 01:03:22;;;;;;;19.90;11.88;;;-2.50;99.90;;;;;;5057306;28;20053;-91
2022/03/22 01:05:50;;;;;;;20.52;12.35;;;-2.50;99.90;;;;;;5060493;28;20071;-92
2022/03/22 01:08:17;;;;;;;18.88;12.18;;;-2.50;99.90;;;;;;5057122;28;20071;-92
2022/03/22 01:10:52;;;;;;;19.58;12.27;;;-2.60;99.90;;;;;;5057026;28;20052;-92
2022/03/22 01:13:21;;;;;;;19.98;12.25;;;-2.60;99.90;;;;;;5056938;28;20048;-92
2022/03/22 01:15:49;;;;;;;20.23;12.45;;;-2.80;99.90;;;;;;5057012;28;20443;-92
2022/03/22 01:18:16;;;;;;;19.48;11.68;;;-2.80;99.90;;;;;;5056864;28;20049;-93
2022/03/22 01:20:48;;;;;;;20.05;12.15;;;-2.90;99.90;;;;;;5056668;28;20050;-92
2022/03/22 01:23:15;;;;;;;19.70;13.25;;;-3.00;99.90;;;;;;5056647;28;20139;-92
2022/03/22 01:25:43;;;;;;;24.58;12.38;;;-3.00;99.90;;;;;;5056798;28;20489;-93
2022/03/22 01:28:12;;;;;;;21.70;12.43;;;-3.20;99.90;;;;;;5056642;28;20056;-93
2022/03/22 01:30:40;;;;;;;21.15;13.35;;;-3.30;99.90;;;;;;5056235;28;20063;-93
2022/03/22 01:33:06;;;;;;;19.77;12.35;;;-3.30;99.90;;;;;;5056551;28;20135;-93
2022/03/22 01:35:33;;;;;;;25.58;14.05;;;-3.30;99.90;;;;;;5056700;28;20575;-93
2022/03/22 01:38:00;;;;;;;22.98;12.52;;;-3.30;99.90;;;;;;5056500;28;20048;-93
2022/03/22 01:40:29;;;;;;;22.02;13.48;;;-3.20;99.90;;;;;;5055567;28;20140;-93
2022/03/22 01:42:56;;;;;;;21.95;13.85;;;-3.20;99.90;;;;;;5056147;28;20127;-93
2022/03/22 01:45:23;;;;;;;19.15;12.25;;;-3.00;99.90;;;;;;5056069;28;20194;-93
2022/03/22 01:47:50;;;;;;;21.23;12.90;;;-3.00;99.90;;;;;;5056182;28;20064;-93
2022/03/22 01:50:22;;;;;;;20.13;12.52;;;-2.90;99.90;;;;;;5056150;28;20102;-93
2022/03/22 01:52:49;;;;;;;18.65;12.85;;;-3.00;99.90;;;;;;5056764;28;20056;-94
2022/03/22 01:55:19;;;;;;;18.88;12.77;;;-3.00;99.90;;;;;;5061001;28;20143;-93
2022/03/22 01:57:47;;;;;;;25.55;13.60;;;-3.10;99.90;;;;;;5059020;28;20051;-92
2022/03/22 02:00:16;;;;;;;20.80;12.60;;;-3.00;99.90;;;;;;5055973;28;20447;-93
2022/03/22 02:06:02;;;;;;;23.15;12.60;;;-3.20;99.90;;;;;;5073684;28;20385;-93
2022/03/22 02:08:30;;;;;;;25.30;13.40;;;-3.40;99.90;;;;;;5055939;28;20057;-93
2022/03/22 02:10:59;;;;;;;24.10;13.80;;;-3.40;99.90;;;;;;5055529;28;20052;-93
2022/03/22 02:13:31;;;;;;;22.13;13.20;;;-3.30;99.90;;;;;;5056009;28;20052;-93
2022/03/22 02:15:59;;;;;;;23.25;13.25;;;-3.30;99.90;;;;;;5056079;28;20057;-93
2022/03/22 02:18:27;;;;;;;20.83;12.93;;;-3.40;99.90;;;;;;5056039;28;20048;-94
2022/03/22 02:20:54;;;;;;;24.40;13.02;;;-3.50;99.90;;;;;;5054784;28;20147;-93
2022/03/22 02:23:44;;;;;;;23.83;13.38;;;-3.50;99.90;;;;;;5055984;28;20139;-92
2022/03/22 02:26:10;;;;;;;29.35;13.65;;;-3.50;99.90;;;;;;5055759;28;20045;-93
2022/03/22 02:28:37;;;;;;;22.38;13.80;;;-3.50;99.90;;;;;;5055785;28;20053;-94
2022/03/22 02:31:04;;;;;;;24.52;15.05;;;-3.50;99.90;;;;;;5055548;28;20420;-94
2022/03/22 02:33:31;;;;;;;21.60;13.93;;;-3.50;99.90;;;;;;5055540;28;20492;-94
2022/03/22 02:35:58;;;;;;;25.35;13.50;;;-3.60;99.90;;;;;;5055797;28;20052;-94
2022/03/22 02:38:24;;;;;;;24.70;13.02;;;-3.60;99.90;;;;;;5055775;28;20137;-94
2022/03/22 02:40:51;;;;;;;32.55;14.55;;;-3.70;99.90;;;;;;5055454;28;20135;-94
2022/03/22 02:43:18;;;;;;;22.27;13.23;;;-3.60;99.90;;;;;;5055416;28;20048;-94
2022/03/22 02:45:45;;;;;;;29.45;14.15;;;-3.50;99.90;;;;;;5055818;28;20559;-94
2022/03/22 02:48:11;;;;;;;21.88;13.30;;;-3.40;99.90;;;;;;5055214;28;20063;-94
2022/03/22 02:50:38;;;;;;;23.70;13.10;;;-3.40;99.90;;;;;;5055740;28;20143;-94
2022/03/22 02:53:05;;;;;;;19.15;12.30;;;-3.40;99.90;;;;;;5059773;28;20062;-94
2022/03/22 02:55:32;;;;;;;23.05;13.20;;;-3.40;99.90;;;;;;5059786;28;20135;-94
2022/03/22 02:57:58;;;;;;;23.60;12.55;;;-3.50;99.90;;;;;;5059738;28;20048;-94
2022/03/22 03:00:26;;;;;;;20.48;13.38;;;-3.50;99.90;;;;;;5059483;28;20059;-94
2022/03/22 03:02:54;;;;;;;21.98;12.63;;;-3.50;99.90;;;;;;5059127;28;20080;-95
2022/03/22 03:05:22;;;;;;;20.48;12.30;;;-3.60;99.90;;;;;;5059489;28;20087;-94
2022/03/22 03:07:50;;;;;;;25.23;13.07;;;-3.60;99.90;;;;;;5059650;28;20459;-94
2022/03/22 03:10:17;;;;;;;26.35;12.82;;;-3.70;99.90;;;;;;5065290;28;20112;-95
2022/03/22 03:12:44;;;;;;;21.98;12.60;;;-3.70;99.90;;;;;;5065017;28;20135;-95
2022/03/22 03:15:12;;;;;;;27.50;13.60;;;-3.70;99.90;;;;;;5059152;28;20507;-95
2022/03/22 03:17:39;;;;;;;26.45;14.65;;;-3.70;99.90;;;;;;5059360;28;20047;-94
2022/03/22 03:20:07;;;;;;;24.50;13.68;;;-3.70;99.90;;;;;;5059188;28;20136;-94
2022/03/22 03:22:34;;;;;;;25.02;14.13;;;-3.80;99.90;;;;;;5058843;28;20055;-94
2022/03/22 03:25:02;;;;;;;29.25;14.45;;;-3.80;99.90;;;;;;5059407;28;20064;-94
2022/03/22 03:27:29;;;;;;;24.27;13.68;;;-3.80;99.90;;;;;;5059084;28;20065;-94
2022/03/22 03:29:56;;;;;;;25.70;14.10;;;-3.80;99.90;;;;;;5059022;28;20147;-94
2022/03/22 03:32:23;;;;;;;24.00;12.48;;;-3.90;99.90;;;;;;5058839;28;20054;-94
2022/03/22 03:34:49;;;;;;;22.80;13.43;;;-4.00;99.90;;;;;;5058859;28;20127;-94
2022/03/22 03:37:17;;;;;;;28.60;13.95;;;-4.00;99.90;;;;;;5058565;28;20052;-94
2022/03/22 03:39:44;;;;;;;22.17;14.30;;;-3.90;99.90;;;;;;5058745;28;20135;-93
2022/03/22 03:42:11;;;;;;;23.80;13.48;;;-3.80;99.90;;;;;;5058269;28;20059;-94
2022/03/22 03:47:23;;;;;;;23.60;14.20;;;-4.00;99.90;;;;;;5076092;28;20599;-94
2022/03/22 03:49:54;;;;;;;24.33;14.10;;;-3.90;99.90;;;;;;5058949;28;20063;-94
2022/03/22 03:52:27;;;;;;;25.67;13.68;;;-3.90;99.90;;;;;;5058791;28;20044;-94
2022/03/22 03:54:55;;;;;;;24.98;13.57;;;-4.00;99.90;;;;;;5058818;28;20143;-94
2022/03/22 03:57:23;;;;;;;29.10;12.55;;;-4.00;99.90;;;;;;5058888;28;20054;-93
2022/03/22 03:59:51;;;;;;;20.00;12.73;;;-4.10;99.90;;;;;;5058595;28;20135;-94
2022/03/22 04:02:19;;;;;;;26.63;13.80;;;-4.10;99.90;;;;;;5057980;28;20131;-95
2022/03/22 04:04:52;;;;;;;26.00;13.32;;;-4.20;99.90;;;;;;5058392;28;20057;-95
2022/03/22 04:07:22;;;;;;;22.20;12.88;;;-4.20;99.90;;;;;;5058249;28;20080;-94
2022/03/22 04:09:49;;;;;;;21.90;13.20;;;-4.30;99.90;;;;;;5058373;28;20068;-93
2022/03/22 04:12:17;;;;;;;24.08;14.05;;;-4.20;99.90;;;;;;5058356;28;20045;-95
2022/03/22 04:14:44;;;;;;;24.08;13.93;;;-4.20;99.90;;;;;;5058234;28;20072;-95
2022/03/22 04:17:10;;;;;;;25.15;14.00;;;-4.30;99.90;;;;;;5058498;28;20045;-95
2022/03/22 04:19:37;;;;;;;30.88;14.15;;;-4.30;99.90;;;;;;5058333;28;20131;-95
2022/03/22 04:22:05;;;;;;;23.13;13.52;;;-4.30;99.90;;;;;;5058523;28;20131;-95
2022/03/22 04:24:32;;;;;;;21.38;12.85;;;-4.40;99.90;;;;;;5063677;28;20108;-94
2022/03/22 04:32:41;;;;;;;35.05;13.93;;;-4.30;99.90;;;;;;5075275;28;20061;-95
2022/03/22 04:32:43;;;;;;;25.60;13.85;;;-4.30;99.90;;;;;;5075554;28;20052;-94
2022/03/22 04:35:24;;;;;;;21.02;13.05;;;-4.40;99.90;;;;;;5050646;28;20049;-94
2022/03/22 04:37:55;;;;;;;25.15;12.90;;;-4.40;99.90;;;;;;5061338;28;20393;-94
2022/03/22 04:40:22;;;;;;;25.73;13.32;;;-4.40;99.90;;;;;;5058655;28;20075;-95
2022/03/22 04:42:51;;;;;;;25.95;13.05;;;-4.50;99.90;;;;;;5058738;28;20053;-95
2022/03/22 04:45:18;;;;;;;23.13;13.05;;;-4.50;99.90;;;;;;5057754;28;20500;-95
2022/03/22 04:47:45;;;;;;;24.10;13.45;;;-4.50;99.90;;;;;;5057705;28;20064;-95
2022/03/22 04:50:15;;;;;;;19.30;11.70;;;-4.40;99.90;;;;;;5057526;28;20067;-95
2022/03/22 04:58:13;;;;;;;26.05;12.85;;;-4.40;99.90;;;;;;5077680;28;20052;-95
2022/03/22 05:00:40;;;;;;;21.73;12.25;;;-4.40;99.90;;;;;;5060200;28;20139;-95
2022/03/22 05:03:08;;;;;;;24.17;12.73;;;-4.20;99.90;;;;;;5058869;28;20499;-95
2022/03/22 05:08:20;;;;;;;25.70;11.93;;;-4.20;99.90;;;;;;5076518;28;20421;-95
2022/03/22 05:10:47;;;;;;;25.00;12.40;;;-4.10;99.90;;;;;;5058711;28;20477;-95
2022/03/22 05:13:19;;;;;;;24.70;12.75;;;-4.30;99.90;;;;;;5059429;28;20521;-95
2022/03/22 05:15:47;;;;;;;24.10;12.75;;;-4.40;99.90;;;;;;5058544;28;20116;-95
2022/03/22 05:18:15;;;;;;;22.80;12.95;;;-4.50;99.90;;;;;;5059335;28;20064;-95
2022/03/22 05:20:41;;;;;;;28.50;13.35;;;-4.60;99.90;;;;;;5059436;28;20199;-95
2022/03/22 05:23:08;;;;;;;24.30;14.25;;;-4.50;99.90;;;;;;5058427;28;20094;-95
2022/03/22 05:25:35;;;;;;;21.88;12.88;;;-4.50;99.90;;;;;;5058796;28;20492;-96
2022/03/22 05:28:03;;;;;;;24.50;14.10;;;-4.40;99.90;;;;;;5059512;28;20053;-95
2022/03/22 05:30:31;;;;;;;21.98;12.88;;;-4.50;99.90;;;;;;5057980;28;20063;-95
2022/03/22 05:32:59;;;;;;;24.02;13.45;;;-4.50;99.90;;;;;;5059357;28;20079;-95
2022/03/22 05:35:26;;;;;;;29.08;14.35;;;-4.50;99.90;;;;;;5065869;28;20068;-95
2022/03/22 05:37:53;;;;;;;27.33;14.50;;;-4.50;99.90;;;;;;5061185;28;20108;-95
2022/03/22 05:40:20;;;;;;;27.05;14.38;;;-4.50;99.90;;;;;;5070307;28;20060;-94
2022/03/22 05:42:48;;;;;;;28.05;14.80;;;-4.40;99.90;;;;;;5071925;28;20472;-95
2022/03/22 05:45:15;;;;;;;24.13;13.75;;;-4.50;99.90;;;;;;5058096;28;20131;-95
2022/03/22 05:47:42;;;;;;;28.33;14.93;;;-4.40;99.90;;;;;;5057928;28;20126;-95
2022/03/22 05:50:10;;;;;;;26.50;13.40;;;-4.40;99.90;;;;;;5058216;28;20048;-95
2022/03/22 05:52:47;;;;;;;30.27;14.25;;;-4.40;99.90;;;;;;5060260;28;20049;-95
2022/03/22 05:55:14;;;;;;;26.00;14.00;;;-4.20;99.90;;;;;;5058493;28;20131;-96
2022/03/22 05:57:41;;;;;;;36.58;16.48;;;-4.20;99.90;;;;;;5058364;28;20551;-94
2022/03/22 06:00:09;;;;;;;36.88;17.38;;;-4.10;99.90;;;;;;5057690;28;20143;-96
2022/03/22 06:02:39;;;;;;;32.42;16.15;;;-3.90;99.90;;;;;;5057812;28;20480;-95
2022/03/22 06:05:08;;;;;;;30.98;16.40;;;-3.90;99.90;;;;;;5058114;28;20068;-96
2022/03/22 06:07:37;;;;;;;29.92;15.70;;;-3.80;99.90;;;;;;5057741;28;20076;-95
2022/03/22 06:10:05;;;;;;;27.00;13.90;;;-3.80;99.90;;;;;;5053498;28;20103;-95
2022/03/22 06:12:40;;;;;;;24.67;13.48;;;-3.70;99.90;;;;;;5056671;28;20051;-95
2022/03/22 06:15:15;;;;;;;25.35;13.70;;;-3.60;99.90;;;;;;5048466;28;20053;-96
2022/03/22 06:17:47;;;;;;;23.98;13.25;;;-3.60;99.90;;;;;;5046149;28;20127;-95
2022/03/22 06:20:16;;;;;;;37.88;15.63;;;-3.50;99.90;;;;;;5046949;28;20094;-93
2022/03/22 06:22:45;;;;;;;31.88;17.00;;;-3.50;99.90;;;;;;5046890;28;20471;-95
2022/03/22 06:25:13;;;;;;;50.53;25.20;;;-3.60;99.90;;;;;;5037341;28;20049;-95
2022/03/22 06:27:41;;;;;;;34.72;18.50;;;-3.60;99.90;;;;;;5021101;28;20040;-95
2022/03/22 06:30:10;;;;;;;35.50;15.13;;;-3.50;99.90;;;;;;5037103;28;20049;-95
2022/03/22 06:32:50;;;;;;;32.40;16.40;;;-3.40;99.90;;;;;;5037299;28;20049;-95
2022/03/22 06:35:19;;;;;;;50.63;22.75;;;-3.40;99.90;;;;;;5037039;28;20476;-95
2022/03/22 06:37:48;;;;;;;49.03;24.63;;;-3.10;99.90;;;;;;5039236;28;20477;-95
2022/03/22 06:40:18;;;;;;;54.78;25.48;;;-2.50;99.90;;;;;;5036608;28;20477;-92
2022/03/22 06:42:46;;;;;;;38.80;19.38;;;-1.70;99.90;;;;;;5036216;28;20083;-92
2022/03/22 06:45:14;;;;;;;30.58;16.85;;;-1.10;99.90;;;;;;5036238;28;20132;-93
2022/03/22 06:47:42;;;;;;;102.18;16.50;;;-0.60;99.90;;;;;;5035727;28;20091;-92
2022/03/22 06:50:14;;;;;;;64.28;14.80;;;0.20;99.90;;;;;;5036266;28;20068;-91
2022/03/22 06:52:42;;;;;;;83.47;14.68;;;1.00;99.90;;;;;;5036405;28;20477;-90
2022/03/22 06:55:10;;;;;;;95.68;14.93;;;1.70;99.90;;;;;;5038248;28;20049;-90
2022/03/22 06:57:38;;;;;;;49.85;10.73;;;2.00;99.90;;;;;;5038023;28;20438;-89
2022/03/22 07:00:08;;;;;;;28.92;11.07;;;2.10;99.90;;;;;;5035739;28;20413;-90
2022/03/22 07:02:38;;;;;;;39.45;11.35;;;2.20;99.90;;;;;;5036095;28;20053;-89
2022/03/22 07:05:07;;;;;;;29.15;11.13;;;3.00;99.90;;;;;;5035270;28;20131;-88
2022/03/22 07:07:34;;;;;;;22.88;9.50;;;3.10;99.90;;;;;;5052490;28;20049;-87
2022/03/22 07:10:02;;;;;;;21.52;9.02;;;3.20;99.90;;;;;;5034968;28;20567;-88
2022/03/22 07:12:30;;;;;;;20.48;8.50;;;3.40;99.90;;;;;;5034775;28;20504;-88
2022/03/22 07:14:57;;;;;;;16.10;8.80;;;3.10;99.90;;;;;;5035030;28;20053;-87
2022/03/22 07:17:24;;;;;;;16.67;8.40;;;2.80;99.90;;;;;;5035230;28;20049;-87
2022/03/22 07:19:53;;;;;;;47.63;9.75;;;2.80;99.90;;;;;;5034914;28;20079;-88
2022/03/22 07:22:19;;;;;;;34.47;9.45;;;3.30;99.90;;;;;;5034350;28;20505;-88
2022/03/22 07:24:46;;;;;;;19.92;9.38;;;3.90;99.90;;;;;;5052210;28;20085;-88
2022/03/22 07:27:13;;;;;;;26.35;8.60;;;4.20;99.90;;;;;;5034904;28;20488;-88
2022/03/22 07:29:40;;;;;;;17.92;8.45;;;5.70;99.90;;;;;;5035302;28;20342;-88
2022/03/22 07:32:07;;;;;;;32.08;9.57;;;7.10;99.90;;;;;;5052536;28;20484;-88
2022/03/22 07:34:34;;;;;;;28.15;8.55;;;7.80;96.40;;;;;;5035210;28;20469;-88
2022/03/22 07:37:00;;;;;;;22.88;8.15;;;8.30;95.40;;;;;;5052591;28;20135;-89
2022/03/22 07:39:29;;;;;;;11.55;6.50;;;9.40;92.70;;;;;;5037693;28;20041;-88
2022/03/22 07:41:56;;;;;;;15.05;6.97;;;10.50;85.90;;;;;;5038560;28;20487;-88
2022/03/22 07:44:23;;;;;;;14.88;7.30;;;10.60;79.70;;;;;;5038184;28;20149;-88
2022/03/22 07:46:49;;;;;;;52.83;8.68;;;11.00;79.20;;;;;;5037873;28;20485;-88
2022/03/22 07:54:47;;;;;;;7.38;5.63;;;12.70;71.50;;;;;;5055763;28;20052;-88
2022/03/22 07:57:14;;;;;;;8.75;6.00;;;12.60;70.70;;;;;;5055731;28;20394;-87
2022/03/22 07:59:40;;;;;;;13.10;6.15;;;12.20;70.40;;;;;;5037934;28;20107;-87
2022/03/22 08:02:07;;;;;;;10.52;6.05;;;12.50;70.50;;;;;;5037770;28;20049;-87
2022/03/22 08:04:34;;;;;;;9.52;6.32;;;12.90;69.70;;;;;;5037987;28;20501;-87
2022/03/22 08:07:01;;;;;;;16.00;7.00;;;13.80;66.90;;;;;;5037815;28;20055;-87
2022/03/22 08:09:28;;;;;;;17.80;7.25;;;14.70;63.20;;;;;;5038363;28;20053;-87
2022/03/22 08:11:55;;;;;;;24.92;8.35;;;15.70;62.00;;;;;;5037803;28;20049;-87
2022/03/22 08:14:22;;;;;;;21.33;7.70;;;17.40;58.70;;;;;;5055225;28;20052;-87
2022/03/22 08:16:49;;;;;;;23.45;7.20;;;17.90;56.90;;;;;;5037740;28;20053;-87
2022/03/22 08:19:18;;;;;;;25.58;6.70;;;16.90;56.60;;;;;;5037299;28;20148;-87
2022/03/22 08:21:48;;;;;;;36.00;8.23;;;18.10;55.60;;;;;;5037252;28;20136;-87
2022/03/22 08:24:15;;;;;;;21.73;8.38;;;19.00;52.70;;;;;;5036619;28;20059;-87
2022/03/22 08:26:42;;;;;;;33.15;8.40;;;18.80;51.60;;;;;;5037387;28;20107;-85
2022/03/22 08:29:09;;;;;;;23.33;8.10;;;19.50;50.90;;;;;;5037241;28;20166;-85
2022/03/22 08:31:41;;;;;;;39.28;8.98;;;19.20;51.50;;;;;;5054630;28;20049;-87
2022/03/22 08:34:08;;;;;;;32.83;8.65;;;17.70;52.00;;;;;;5036950;28;20060;-87
2022/03/22 08:36:35;;;;;;;22.25;7.70;;;18.20;50.50;;;;;;5037519;28;20044;-86
2022/03/22 08:39:02;;;;;;;19.05;8.27;;;18.20;49.70;;;;;;5037002;28;20490;-86
2022/03/22 08:41:31;;;;;;;33.38;8.82;;;18.80;50.80;;;;;;5036666;28;20051;-87
2022/03/22 08:43:57;;;;;;;29.35;8.63;;;19.40;51.20;;;;;;5054552;28;20049;-85
2022/03/22 08:46:24;;;;;;;24.17;7.82;;;20.90;49.10;;;;;;5036606;28;20052;-85
2022/03/22 08:48:53;;;;;;;36.08;8.82;;;20.90;47.00;;;;;;5054128;28;20080;-85
2022/03/22 08:51:24;;;;;;;29.13;7.65;;;20.70;46.60;;;;;;5036902;28;20045;-86
2022/03/22 08:53:54;;;;;;;16.73;6.85;;;18.90;48.70;;;;;;5054690;28;20049;-85
2022/03/22 08:56:22;;;;;;;22.55;7.93;;;20.20;48.70;;;;;;5036924;28;20421;-85
2022/03/22 08:58:52;;;;;;;32.42;7.43;;;20.50;46.20;;;;;;5036877;28;20073;-85
2022/03/22 09:01:30;;;;;;;21.73;7.20;;;21.00;45.50;;;;;;5036681;28;20055;-84
2022/03/22 09:06:42;;;;;;;20.10;8.18;;;20.80;44.70;;;;;;5054404;28;20120;-85
2022/03/22 09:09:10;;;;;;;18.30;6.30;;;21.30;44.60;;;;;;5036628;28;20139;-85
2022/03/22 09:11:40;;;;;;;10.77;6.22;;;20.70;45.50;;;;;;5036641;28;20044;-85
2022/03/22 09:14:06;;;;;;;20.15;6.35;;;20.50;45.50;;;;;;5028652;28;20053;-85
2022/03/22 09:16:34;;;;;;;13.23;6.18;;;20.50;45.70;;;;;;5054018;28;20041;-85
2022/03/22 09:19:01;;;;;;;14.85;5.53;;;20.30;44.60;;;;;;5036649;28;20100;-85
2022/03/22 09:21:29;;;;;;;15.43;6.55;;;19.90;45.80;;;;;;5036265;28;20059;-85
2022/03/22 09:23:56;;;;;;;14.98;5.70;;;20.50;46.10;;;;;;5037546;28;20057;-86
2022/03/22 09:26:24;;;;;;;15.25;7.03;;;21.80;44.90;;;;;;5038193;28;20045;-85
2022/03/22 09:28:52;;;;;;;19.48;6.20;;;21.60;43.80;;;;;;5035589;28;20049;-85
2022/03/22 09:31:20;;;;;;;11.80;5.53;;;21.70;44.30;;;;;;5034796;28;20554;-85
2022/03/22 09:33:48;;;;;;;9.98;5.28;;;23.10;42.80;;;;;;5052261;28;20087;-86
2022/03/22 09:36:16;;;;;;;7.25;4.88;;;23.40;41.40;;;;;;5034661;28;20106;-86
2022/03/22 09:38:44;;;;;;;27.48;6.50;;;25.00;40.70;;;;;;5052552;28;20046;-85
2022/03/22 09:41:16;;;;;;;6.82;5.43;;;26.50;39.20;;;;;;5053194;28;20701;-86
2022/03/22 09:43:47;;;;;;;8.27;4.88;;;27.60;37.80;;;;;;5031182;28;20128;-86
2022/03/22 09:46:22;;;;;;;10.13;5.32;;;27.40;36.70;;;;;;5056828;28;20076;-86
2022/03/22 09:48:49;;;;;;;7.75;5.13;;;27.50;37.80;;;;;;5072673;28;20102;-86
2022/03/22 09:54:03;;;;;;;7.50;4.72;;;25.70;36.60;;;;;;5073563;28;20040;-86
2022/03/22 09:56:30;;;;;;;15.55;5.45;;;25.30;38.50;;;;;;5056164;28;20110;-86
2022/03/22 09:58:59;;;;;;;7.90;5.47;;;25.90;37.60;;;;;;5056081;28;20084;-86
2022/03/22 10:01:26;;;;;;;7.70;6.00;;;25.20;37.50;;;;;;5055002;28;20056;-85
2022/03/22 10:04:02;;;;;;;7.93;5.53;;;24.60;37.50;;;;;;5073856;28;20404;-85
2022/03/22 10:06:30;;;;;;;13.30;6.05;;;24.10;38.30;;;;;;5073796;28;20112;-85
2022/03/22 10:08:57;;;;;;;5.38;4.85;;;24.20;39.00;;;;;;5056022;28;20048;-86
2022/03/22 10:11:43;;;;;;;24.60;5.93;;;24.90;38.00;;;;;;5055784;28;20422;-85
2022/03/22 10:14:12;;;;;;;7.72;4.80;;;25.40;38.40;;;;;;5056100;28;20112;-85
2022/03/22 10:16:51;;;;;;;6.82;4.85;;;26.20;36.30;;;;;;5055901;28;20136;-86
2022/03/22 10:19:22;;;;;;;9.13;5.68;;;25.80;36.60;;;;;;5056198;28;20053;-84
2022/03/22 10:21:49;;;;;;;23.40;6.07;;;25.10;37.40;;;;;;5055799;28;20090;-86
2022/03/22 10:24:16;;;;;;;12.27;5.72;;;24.50;37.90;;;;;;5073150;28;20529;-86
2022/03/22 10:26:44;;;;;;;10.13;5.78;;;23.90;37.60;;;;;;5073581;28;20496;-85
2022/03/22 10:29:13;;;;;;;8.68;5.32;;;23.70;37.70;;;;;;5055899;28;20055;-85
2022/03/22 10:31:41;;;;;;;7.18;5.35;;;24.80;37.50;;;;;;5056251;28;20040;-85
2022/03/22 10:34:10;;;;;;;8.88;5.32;;;25.00;35.90;;;;;;5055941;28;20056;-85
2022/03/22 10:36:39;;;;;;;6.80;5.03;;;24.80;36.00;;;;;;5056119;28;20104;-86
2022/03/22 10:39:08;;;;;;;10.00;5.50;;;25.10;34.10;;;;;;5073857;28;20055;-85
2022/03/22 10:41:43;;;;;;;7.45;4.95;;;24.70;34.20;;;;;;5074893;28;20051;-86
2022/03/22 10:44:15;;;;;;;5.30;4.60;;;26.10;33.80;;;;;;5065960;28;20072;-86
2022/03/22 10:46:45;;;;;;;7.85;5.78;;;26.50;31.50;;;;;;5055735;28;20084;-85
2022/03/22 10:49:15;;;;;;;6.28;5.22;;;25.10;33.90;;;;;;5073277;28;20471;-86
2022/03/22 10:51:47;;;;;;;8.23;5.68;;;23.90;36.10;;;;;;5055775;28;20048;-86
2022/03/22 10:54:17;;;;;;;7.10;4.55;;;24.90;33.40;;;;;;5055657;28;20052;-86
2022/03/22 10:56:48;;;;;;;8.30;5.15;;;24.60;32.50;;;;;;5056125;28;20044;-85
2022/03/22 10:59:21;;;;;;;7.85;5.38;;;24.00;33.90;;;;;;5055767;28;20132;-86
2022/03/22 11:01:49;;;;;;;8.77;5.67;;;24.10;34.10;;;;;;5055833;28;20128;-86
2022/03/22 11:04:16;;;;;;;9.88;5.30;;;23.70;36.90;;;;;;5073104;28;20052;-86
2022/03/22 11:06:47;;;;;;;8.90;6.72;;;24.80;35.90;;;;;;5055722;28;20045;-85
2022/03/22 11:09:20;;;;;;;9.73;5.90;;;27.50;35.70;;;;;;5055928;28;20063;-85
2022/03/22 11:11:49;;;;;;;9.07;6.30;;;27.30;34.40;;;;;;5056241;28;20048;-86
2022/03/22 11:14:18;;;;;;;9.38;6.28;;;26.10;35.60;;;;;;5059682;28;20132;-86
2022/03/22 11:16:47;;;;;;;13.05;6.47;;;26.50;35.40;;;;;;5059935;28;20076;-86
2022/03/22 11:19:20;;;;;;;6.88;5.00;;;27.60;35.00;;;;;;5060294;28;20144;-86
2022/03/22 11:21:47;;;;;;;10.82;5.07;;;27.90;31.30;;;;;;5059620;28;20059;-86
2022/03/22 11:24:22;;;;;;;14.68;6.82;;;26.10;30.70;;;;;;5076854;28;20080;-86
2022/03/22 11:26:55;;;;;;;7.13;5.95;;;25.60;33.80;;;;;;5059281;28;20102;-86
2022/03/22 11:29:25;;;;;;;4.90;4.50;;;26.60;34.60;;;;;;5076828;28;20055;-86
2022/03/22 11:34:39;;;;;;;11.80;4.70;;;27.10;30.30;;;;;;5076642;28;20052;-85
2022/03/22 11:37:08;;;;;;;5.18;4.70;;;27.40;30.40;;;;;;5059200;28;20097;-86
2022/03/22 11:42:24;;;;;;;9.93;5.45;;;26.60;30.80;;;;;;5076750;28;20050;-87
2022/03/22 11:45:00;;;;;;;6.07;4.82;;;25.20;31.90;;;;;;5059132;28;20052;-86
2022/03/22 11:47:43;;;;;;;6.20;4.95;;;24.90;30.60;;;;;;5058869;28;20052;-86
2022/03/22 11:50:18;;;;;;;5.35;4.30;;;24.60;32.00;;;;;;5059027;28;20078;-86
2022/03/22 11:52:48;;;;;;;6.18;4.47;;;24.80;31.60;;;;;;5059281;28;20057;-86
2022/03/22 11:55:22;;;;;;;6.13;4.57;;;25.80;31.30;;;;;;5060215;28;20052;-86
2022/03/22 11:57:50;;;;;;;4.60;4.20;;;25.00;31.50;;;;;;5076084;28;20053;-86
2022/03/22 12:00:42;;;;;;;4.72;4.22;;;25.40;30.60;;;;;;5058615;28;20063;-86
2022/03/22 12:03:11;;;;;;;8.55;4.97;;;25.20;31.00;;;;;;5059078;28;20041;-86
2022/03/22 12:05:38;;;;;;;5.30;4.90;;;24.60;31.10;;;;;;5058892;28;20052;-86
2022/03/22 12:08:06;;;;;;;4.63;4.22;;;25.00;31.20;;;;;;5058558;28;20052;-86
2022/03/22 12:10:33;;;;;;;5.00;4.30;;;26.90;30.90;;;;;;5057671;28;20052;-86
2022/03/22 12:13:00;;;;;;;7.18;5.65;;;26.80;30.20;;;;;;5054709;28;20485;-86
2022/03/22 12:15:27;;;;;;;6.70;4.95;;;27.50;31.30;;;;;;5037879;28;20144;-86
2022/03/22 12:17:54;;;;;;;6.45;4.13;;;26.70;30.20;;;;;;5038406;28;20045;-86
2022/03/22 12:20:24;;;;;;;6.00;4.22;;;25.30;29.80;;;;;;5038317;28;20060;-86
2022/03/22 12:22:56;;;;;;;4.22;3.92;;;24.80;30.10;;;;;;5055543;28;20048;-86
2022/03/22 12:25:29;;;;;;;4.00;3.72;;;24.60;30.60;;;;;;5037513;28;20087;-86
2022/03/22 12:27:57;;;;;;;5.93;4.22;;;24.50;30.90;;;;;;5038270;28;20098;-86
2022/03/22 12:30:44;;;;;;;5.22;4.25;;;24.20;31.30;;;;;;5038131;28;20135;-86
2022/03/22 12:33:14;;;;;;;8.43;4.00;;;24.30;31.20;;;;;;5037978;28;20586;-86
2022/03/22 12:35:43;;;;;;;12.13;4.30;;;23.50;31.20;;;;;;5037639;28;20511;-87
2022/03/22 12:38:10;;;;;;;4.78;4.25;;;23.30;31.70;;;;;;5055374;28;20416;-86
2022/03/22 12:40:37;;;;;;;13.60;4.13;;;22.10;32.40;;;;;;5038279;28;20049;-86
2022/03/22 12:43:11;;;;;;;4.70;4.20;;;22.50;32.00;;;;;;5038314;28;20161;-86
2022/03/22 12:45:43;;;;;;;6.72;4.65;;;21.70;32.30;;;;;;5037936;28;20047;-87
2022/03/22 12:48:10;;;;;;;8.63;4.30;;;21.30;33.60;;;;;;5057293;28;20075;-86
2022/03/22 12:50:36;;;;;;;7.72;4.10;;;21.60;33.70;;;;;;5052967;28;20222;-85
2022/03/22 12:53:03;;;;;;;5.18;4.18;;;21.80;33.40;;;;;;5057604;28;20049;-86
2022/03/22 12:55:30;;;;;;;6.15;4.20;;;21.10;33.50;;;;;;5074988;28;20515;-86
2022/03/22 12:57:58;;;;;;;4.68;4.28;;;21.20;34.30;;;;;;5057550;28;20074;-86
2022/03/22 13:00:31;;;;;;;8.25;4.38;;;21.40;33.80;;;;;;5057376;28;20064;-86
2022/03/22 13:03:07;;;;;;;6.05;4.30;;;20.90;34.20;;;;;;5057614;28;20049;-86
2022/03/22 13:05:47;;;;;;;4.78;4.13;;;21.50;33.90;;;;;;5075355;28;20041;-86
2022/03/22 13:08:19;;;;;;;4.68;4.28;;;22.00;35.30;;;;;;5057448;28;20040;-86
2022/03/22 13:16:28;;;;;;;6.55;4.07;;;20.80;33.80;;;;;;5053097;28;20053;-85
2022/03/22 13:19:00;;;;;;;4.75;4.35;;;21.20;37.30;;;;;;5035849;28;20056;-88
2022/03/22 13:21:30;;;;;;;5.07;4.13;;;21.30;35.80;;;;;;5055231;28;20467;-88
2022/03/22 13:24:09;;;;;;;8.50;4.50;;;21.40;34.50;;;;;;5037854;28;20080;-87